Time;durP1;ratioP1;P1;durP2;ratioP2;P2;SDS_P1;SDS_P2;PMS_P1;PMS_P2;Temp;Humidity;BMP_temperature;BMP_pressure;BME280_temperature;BME280_humidity;BME280_pressure;Samples;Min_cycle;Max_cycle;Signal;HPM_P1;HPM_P2
2021/05/13 00:00:50;;;;;;;14.00;12.55;;;14.50;99.90;;;;;;2064311;28;20030;-67
2021/05/13 00:01:51;;;;;;;13.63;12.32;;;14.50;99.90;;;;;;2064148;28;20040;-67
2021/05/13 00:02:52;;;;;;;14.85;13.45;;;14.50;99.90;;;;;;2070906;28;20080;-67
2021/05/13 00:03:54;;;;;;;15.68;14.13;;;14.50;99.90;;;;;;2070991;28;20041;-67
2021/05/13 00:04:54;;;;;;;14.30;12.98;;;14.50;99.90;;;;;;2064012;28;20044;-67
2021/05/13 00:05:55;;;;;;;15.25;13.80;;;14.40;99.90;;;;;;2064024;28;20030;-67
2021/05/13 00:06:55;;;;;;;15.80;14.25;;;14.40;99.90;;;;;;2064015;28;20038;-67
2021/05/13 00:07:56;;;;;;;12.93;11.73;;;14.40;99.90;;;;;;2064157;28;20042;-67
2021/05/13 00:08:57;;;;;;;14.45;12.82;;;14.40;99.90;;;;;;2063918;28;20030;-67
2021/05/13 00:09:58;;;;;;;13.02;11.73;;;14.40;99.90;;;;;;2064302;28;20032;-67
2021/05/13 00:11:04;;;;;;;12.80;11.52;;;14.40;99.90;;;;;;2064248;28;20030;-67
2021/05/13 00:12:13;;;;;;;16.85;15.25;;;14.40;99.90;;;;;;2063933;28;20037;-67
2021/05/13 00:13:14;;;;;;;17.70;15.98;;;14.40;99.90;;;;;;2064036;28;20042;-67
2021/05/13 00:14:18;;;;;;;17.92;16.23;;;14.40;99.90;;;;;;2064008;28;20026;-67
2021/05/13 00:15:30;;;;;;;15.00;13.50;;;14.30;99.90;;;;;;2064405;28;20022;-67
2021/05/13 00:16:32;;;;;;;17.13;15.27;;;14.30;99.90;;;;;;2063483;28;20038;-67
2021/05/13 00:17:33;;;;;;;17.75;16.02;;;14.30;99.90;;;;;;2063629;28;20034;-67
2021/05/13 00:18:34;;;;;;;11.63;10.52;;;14.30;99.90;;;;;;2063741;28;20598;-67
2021/05/13 00:19:34;;;;;;;15.25;13.80;;;14.30;99.90;;;;;;2064186;28;20065;-67
2021/05/13 00:20:40;;;;;;;13.65;12.32;;;14.30;99.90;;;;;;2063895;28;20041;-67
2021/05/13 00:21:42;;;;;;;16.10;14.70;;;14.30;99.90;;;;;;2063860;28;20038;-67
2021/05/13 00:22:43;;;;;;;16.00;14.40;;;14.30;99.90;;;;;;2062663;28;20015;-67
2021/05/13 00:23:43;;;;;;;19.30;17.38;;;14.20;99.90;;;;;;2064162;28;20474;-67
2021/05/13 00:24:44;;;;;;;18.25;16.45;;;14.20;99.90;;;;;;2063825;28;20533;-67
2021/05/13 00:25:47;;;;;;;18.88;16.95;;;14.20;99.90;;;;;;2063957;28;20026;-67
2021/05/13 00:26:48;;;;;;;12.52;11.32;;;14.20;99.90;;;;;;2063918;28;20109;-67
2021/05/13 00:27:49;;;;;;;13.32;12.13;;;14.20;99.90;;;;;;2064222;28;20030;-68
2021/05/13 00:28:50;;;;;;;12.30;10.98;;;14.20;99.90;;;;;;2063677;28;20060;-67
2021/05/13 00:29:50;;;;;;;13.90;12.60;;;14.20;99.90;;;;;;2063889;28;20033;-67
2021/05/13 00:30:51;;;;;;;15.18;13.82;;;14.20;99.90;;;;;;2063133;28;20025;-67
2021/05/13 00:31:52;;;;;;;14.13;12.82;;;14.10;99.90;;;;;;2064227;28;20030;-67
2021/05/13 00:32:53;;;;;;;13.35;12.00;;;14.10;99.90;;;;;;2062218;28;20546;-67
2021/05/13 00:33:54;;;;;;;14.40;12.85;;;14.10;99.90;;;;;;2063213;28;20569;-67
2021/05/13 00:34:54;;;;;;;16.20;14.48;;;14.10;99.90;;;;;;2063954;28;20142;-67
2021/05/13 00:35:55;;;;;;;12.88;11.68;;;14.10;99.90;;;;;;2064117;28;20504;-67
2021/05/13 00:36:55;;;;;;;16.60;15.00;;;14.10;99.90;;;;;;2063575;28;20520;-67
2021/05/13 00:37:56;;;;;;;16.80;15.20;;;14.10;99.90;;;;;;2063983;28;20026;-67
2021/05/13 00:38:57;;;;;;;17.15;15.45;;;14.00;99.90;;;;;;2063735;28;20060;-68
2021/05/13 00:39:58;;;;;;;17.58;15.98;;;14.00;99.90;;;;;;2059848;28;20125;-68
2021/05/13 00:40:58;;;;;;;17.15;14.73;;;14.00;99.90;;;;;;2063015;28;20034;-67
2021/05/13 00:41:59;;;;;;;16.27;14.88;;;14.00;99.90;;;;;;2063317;28;20034;-67
2021/05/13 00:43:01;;;;;;;18.30;16.52;;;14.00;99.90;;;;;;2062711;28;20081;-67
2021/05/13 00:44:02;;;;;;;18.25;16.65;;;13.90;99.90;;;;;;2063575;28;20027;-68
2021/05/13 00:45:05;;;;;;;17.23;15.45;;;13.90;99.90;;;;;;2070529;28;20461;-68
2021/05/13 00:46:05;;;;;;;16.00;14.32;;;13.90;99.90;;;;;;2071068;28;20033;-68
2021/05/13 00:47:06;;;;;;;18.88;17.17;;;13.90;99.90;;;;;;2062758;28;20080;-67
2021/05/13 00:48:13;;;;;;;17.02;15.32;;;13.90;99.90;;;;;;2063158;28;20027;-67
2021/05/13 00:49:15;;;;;;;18.08;15.50;;;13.90;99.90;;;;;;2055828;28;20157;-67
2021/05/13 00:50:16;;;;;;;14.48;13.15;;;13.90;99.90;;;;;;2059613;28;20049;-67
2021/05/13 00:51:17;;;;;;;13.82;12.52;;;13.90;99.90;;;;;;2064118;28;20022;-67
2021/05/13 00:52:23;;;;;;;16.58;15.02;;;13.80;99.90;;;;;;2062801;28;20034;-67
2021/05/13 00:53:25;;;;;;;14.50;13.15;;;13.80;99.90;;;;;;2063485;28;20074;-67
2021/05/13 00:54:26;;;;;;;14.65;13.32;;;13.80;99.90;;;;;;2063589;28;20019;-67
2021/05/13 00:55:26;;;;;;;17.88;16.23;;;13.80;99.90;;;;;;2063793;28;20038;-67
2021/05/13 00:56:28;;;;;;;16.65;15.15;;;13.80;99.90;;;;;;2063315;28;20035;-67
2021/05/13 00:57:31;;;;;;;18.48;16.58;;;13.80;99.90;;;;;;2063841;28;20526;-67
2021/05/13 00:58:34;;;;;;;18.90;17.10;;;13.80;99.90;;;;;;2063344;28;20022;-67
2021/05/13 00:59:40;;;;;;;18.00;16.23;;;13.80;99.90;;;;;;2063843;28;20054;-67
2021/05/13 01:02:48;;;;;;;19.33;17.45;;;13.70;99.90;;;;;;2062184;28;20046;-67
2021/05/13 01:03:49;;;;;;;19.85;17.85;;;13.70;99.90;;;;;;2063953;28;20026;-67
2021/05/13 01:04:50;;;;;;;16.33;14.77;;;13.70;99.90;;;;;;2063389;28;20470;-67
2021/05/13 01:05:50;;;;;;;21.15;15.10;;;13.70;99.90;;;;;;2063563;28;20443;-67
2021/05/13 01:06:51;;;;;;;15.18;13.57;;;13.70;99.90;;;;;;2063442;28;20490;-67
2021/05/13 01:07:52;;;;;;;17.70;16.00;;;13.70;99.90;;;;;;2063734;28;20032;-67
2021/05/13 01:08:52;;;;;;;16.08;14.40;;;13.70;99.90;;;;;;2063235;28;20520;-67
2021/05/13 01:09:53;;;;;;;17.77;16.20;;;13.60;99.90;;;;;;2063777;28;20090;-67
2021/05/13 01:10:53;;;;;;;20.58;18.55;;;13.60;99.90;;;;;;2063566;28;20057;-67
2021/05/13 01:12:07;;;;;;;20.85;18.83;;;13.60;99.90;;;;;;2063799;28;20509;-67
2021/05/13 01:13:18;;;;;;;19.92;17.88;;;13.60;99.90;;;;;;2063052;28;20027;-67
2021/05/13 01:14:26;;;;;;;18.23;16.50;;;13.60;99.90;;;;;;2063579;28;20389;-68
2021/05/13 01:15:38;;;;;;;16.80;15.15;;;13.60;99.90;;;;;;2063642;28;20053;-67
2021/05/13 01:16:48;;;;;;;20.80;18.63;;;13.60;99.90;;;;;;2062750;28;20058;-67
2021/05/13 01:19:00;;;;;;;17.13;15.20;;;13.50;99.90;;;;;;2063448;28;20034;-67
2021/05/13 01:20:00;;;;;;;21.35;19.25;;;13.50;99.90;;;;;;2063713;28;20366;-67
2021/05/13 01:21:01;;;;;;;18.63;16.85;;;13.50;99.90;;;;;;2063230;28;20105;-67
2021/05/13 01:22:04;;;;;;;21.33;19.38;;;13.50;99.90;;;;;;2063283;28;20037;-67
2021/05/13 01:23:10;;;;;;;21.38;19.38;;;13.40;99.90;;;;;;2060052;28;20036;-67
2021/05/13 01:24:12;;;;;;;23.60;21.08;;;13.40;99.90;;;;;;2063576;28;20033;-67
2021/05/13 01:25:13;;;;;;;20.02;17.63;;;13.40;99.90;;;;;;2063543;28;20054;-67
2021/05/13 01:26:15;;;;;;;19.90;17.75;;;13.40;99.90;;;;;;2063306;28;20670;-67
2021/05/13 01:27:17;;;;;;;19.13;17.33;;;13.40;99.90;;;;;;2063591;28;20088;-67
2021/05/13 01:28:23;;;;;;;18.63;16.83;;;13.40;99.90;;;;;;2062757;28;20018;-67
2021/05/13 01:29:25;;;;;;;18.50;16.63;;;13.40;99.90;;;;;;2062825;28;20034;-67
2021/05/13 01:30:27;;;;;;;17.52;15.82;;;13.40;99.90;;;;;;2063047;28;20021;-67
2021/05/13 01:31:28;;;;;;;15.98;14.35;;;13.40;99.90;;;;;;2063594;28;20029;-67
2021/05/13 01:32:29;;;;;;;19.02;17.20;;;13.40;99.90;;;;;;2063005;28;20030;-67
2021/05/13 01:33:29;;;;;;;20.33;18.33;;;13.40;99.90;;;;;;2062708;28;20490;-67
2021/05/13 01:34:30;;;;;;;16.55;14.90;;;13.40;99.90;;;;;;2063437;28;20421;-67
2021/05/13 01:35:31;;;;;;;19.83;17.80;;;13.40;99.90;;;;;;2063042;28;20026;-67
2021/05/13 01:36:32;;;;;;;20.02;17.88;;;13.40;99.90;;;;;;2063384;28;20022;-67
2021/05/13 01:37:32;;;;;;;18.48;16.67;;;13.40;99.90;;;;;;2063553;28;20022;-67
2021/05/13 01:38:33;;;;;;;17.77;15.88;;;13.40;99.90;;;;;;2070737;28;20057;-67
2021/05/13 01:39:34;;;;;;;20.00;18.13;;;13.40;99.90;;;;;;2070999;28;20084;-67
2021/05/13 01:40:35;;;;;;;22.13;19.92;;;13.40;99.90;;;;;;2063462;28;20035;-67
2021/05/13 01:41:36;;;;;;;21.08;18.92;;;13.40;99.90;;;;;;2063475;28;20045;-68
2021/05/13 01:42:37;;;;;;;19.08;17.27;;;13.40;99.90;;;;;;2062866;28;20484;-67
2021/05/13 01:43:38;;;;;;;18.73;16.85;;;13.40;99.90;;;;;;2063116;28;20546;-67
2021/05/13 01:44:38;;;;;;;18.48;16.75;;;13.30;99.90;;;;;;2063353;28;20089;-67
2021/05/13 01:45:41;;;;;;;18.70;16.75;;;13.30;99.90;;;;;;2062736;28;20396;-67
2021/05/13 01:46:42;;;;;;;25.25;22.38;;;13.30;99.90;;;;;;2063455;28;20023;-67
2021/05/13 01:47:42;;;;;;;18.73;16.95;;;13.30;99.90;;;;;;2063124;28;20030;-67
2021/05/13 01:48:44;;;;;;;23.10;21.00;;;13.30;99.90;;;;;;2063384;28;20022;-68
2021/05/13 01:49:45;;;;;;;23.88;21.25;;;13.30;99.90;;;;;;2063207;28;20061;-67
2021/05/13 01:50:47;;;;;;;22.13;19.80;;;13.30;99.90;;;;;;2063342;28;20019;-67
2021/05/13 01:51:48;;;;;;;20.73;18.73;;;13.30;99.90;;;;;;2063463;28;20446;-68
2021/05/13 01:52:49;;;;;;;22.08;19.90;;;13.30;99.90;;;;;;2062639;28;20050;-67
2021/05/13 01:53:49;;;;;;;20.80;18.55;;;13.30;99.90;;;;;;2063184;28;20059;-67
2021/05/13 01:54:50;;;;;;;19.92;18.13;;;13.30;99.90;;;;;;2063349;28;20034;-67
2021/05/13 01:55:51;;;;;;;20.88;18.73;;;13.30;99.90;;;;;;2063462;28;20069;-67
2021/05/13 01:56:51;;;;;;;22.98;20.77;;;13.30;99.90;;;;;;2060839;28;20727;-67
2021/05/13 01:57:55;;;;;;;20.73;18.33;;;13.30;99.90;;;;;;2055598;28;20105;-67
2021/05/13 01:58:55;;;;;;;17.35;15.82;;;13.30;99.90;;;;;;2063209;28;20026;-67
2021/05/13 01:59:57;;;;;;;16.98;15.25;;;13.30;99.90;;;;;;2063331;28;20026;-67
2021/05/13 02:00:57;;;;;;;17.55;15.63;;;13.30;99.90;;;;;;2064199;28;20030;-67
2021/05/13 02:01:59;;;;;;;18.42;16.63;;;13.20;99.90;;;;;;2064620;28;20034;-67
2021/05/13 02:03:00;;;;;;;24.60;19.77;;;13.20;99.90;;;;;;2064045;28;20381;-67
2021/05/13 02:04:01;;;;;;;22.17;19.73;;;13.20;99.90;;;;;;2064664;28;20058;-67
2021/05/13 02:05:02;;;;;;;23.83;21.02;;;13.20;99.90;;;;;;2064822;28;20033;-67
2021/05/13 02:06:06;;;;;;;19.85;18.02;;;13.20;99.90;;;;;;2064507;28;20031;-67
2021/05/13 02:07:06;;;;;;;22.55;20.23;;;13.20;99.90;;;;;;2064813;28;20030;-67
2021/05/13 02:08:07;;;;;;;25.05;22.52;;;13.20;99.90;;;;;;2064610;28;20113;-67
2021/05/13 02:09:08;;;;;;;26.42;23.65;;;13.20;99.90;;;;;;2065839;28;20038;-67
2021/05/13 02:10:10;;;;;;;27.40;24.67;;;13.20;99.90;;;;;;2073702;28;20489;-67
2021/05/13 02:11:11;;;;;;;27.83;25.02;;;13.20;99.90;;;;;;2073753;28;20758;-67
2021/05/13 02:12:11;;;;;;;23.70;21.50;;;13.20;99.90;;;;;;2066079;28;20374;-67
2021/05/13 02:13:13;;;;;;;28.75;25.85;;;13.20;99.90;;;;;;2066210;28;20018;-67
2021/05/13 02:14:15;;;;;;;28.40;25.40;;;13.20;99.90;;;;;;2066237;28;20029;-67
2021/05/13 02:15:17;;;;;;;30.10;27.00;;;13.20;99.90;;;;;;2066509;28;20030;-67
2021/05/13 02:16:18;;;;;;;25.77;23.35;;;13.20;99.90;;;;;;2066376;28;20033;-67
2021/05/13 02:17:18;;;;;;;25.60;22.85;;;13.20;99.90;;;;;;2065992;28;20049;-67
2021/05/13 02:18:20;;;;;;;22.90;20.50;;;13.20;99.90;;;;;;2066313;28;20074;-67
2021/05/13 02:19:21;;;;;;;22.73;20.50;;;13.20;99.90;;;;;;2066114;28;20038;-67
2021/05/13 02:20:24;;;;;;;21.55;19.45;;;13.20;99.90;;;;;;2066543;28;20105;-67
2021/05/13 02:21:24;;;;;;;20.75;18.75;;;13.20;99.90;;;;;;2066262;28;20026;-67
2021/05/13 02:22:25;;;;;;;22.20;20.00;;;13.20;99.90;;;;;;2065385;28;20549;-67
2021/05/13 02:23:26;;;;;;;25.17;22.77;;;13.10;99.90;;;;;;2066141;28;20466;-67
2021/05/13 02:24:26;;;;;;;20.35;18.30;;;13.10;99.90;;;;;;2066593;28;20503;-67
2021/05/13 02:25:31;;;;;;;25.52;23.02;;;13.10;99.90;;;;;;2066202;28;20023;-67
2021/05/13 02:26:31;;;;;;;25.25;22.75;;;13.10;99.90;;;;;;2066115;28;20105;-67
2021/05/13 02:27:32;;;;;;;26.20;23.45;;;13.10;99.90;;;;;;2066062;28;20030;-67
2021/05/13 02:28:33;;;;;;;26.60;24.00;;;13.10;99.90;;;;;;2066222;28;20057;-67
2021/05/13 02:29:33;;;;;;;28.30;25.60;;;13.10;99.90;;;;;;2065923;28;20053;-67
2021/05/13 02:30:34;;;;;;;24.90;22.60;;;13.10;99.90;;;;;;2064606;28;20038;-67
2021/05/13 02:31:35;;;;;;;25.55;23.02;;;13.00;99.90;;;;;;2065558;28;20022;-67
2021/05/13 02:32:36;;;;;;;19.95;18.05;;;13.00;99.90;;;;;;2065791;28;20034;-67
2021/05/13 02:33:36;;;;;;;25.75;23.27;;;13.00;99.90;;;;;;2066031;28;20030;-67
2021/05/13 02:34:37;;;;;;;23.85;21.55;;;13.00;99.90;;;;;;2066358;28;20041;-67
2021/05/13 02:35:38;;;;;;;23.77;21.38;;;13.00;99.90;;;;;;2066027;28;20038;-67
2021/05/13 02:36:39;;;;;;;23.20;20.80;;;13.00;99.90;;;;;;2065509;28;20355;-67
2021/05/13 02:37:40;;;;;;;24.50;22.02;;;12.90;99.90;;;;;;2062846;28;20109;-67
2021/05/13 02:38:40;;;;;;;21.65;19.23;;;12.90;99.90;;;;;;2064511;28;20485;-67
2021/05/13 02:39:41;;;;;;;25.73;23.10;;;12.90;99.90;;;;;;2066143;28;20378;-67
2021/05/13 02:40:41;;;;;;;22.67;20.48;;;12.90;99.90;;;;;;2065793;28;20022;-67
2021/05/13 02:41:43;;;;;;;25.75;23.05;;;12.90;99.90;;;;;;2066163;28;20466;-67
2021/05/13 02:42:47;;;;;;;25.48;22.88;;;12.80;99.90;;;;;;2065659;28;20085;-67
2021/05/13 02:43:48;;;;;;;23.33;21.13;;;12.80;99.90;;;;;;2066091;28;21635;-67
2021/05/13 02:44:49;;;;;;;29.25;26.30;;;12.80;99.90;;;;;;2065552;28;20384;-67
2021/05/13 02:45:49;;;;;;;30.90;27.73;;;12.80;99.90;;;;;;2063791;28;20033;-67
2021/05/13 02:46:50;;;;;;;30.33;27.33;;;12.80;99.90;;;;;;2066157;28;20026;-67
2021/05/13 02:47:52;;;;;;;30.48;27.30;;;12.70;99.90;;;;;;2066126;28;20422;-67
2021/05/13 02:48:52;;;;;;;32.80;29.63;;;12.70;99.90;;;;;;2066019;28;20535;-67
2021/05/13 02:49:53;;;;;;;33.30;30.05;;;12.70;99.90;;;;;;2066041;28;20069;-67
2021/05/13 02:50:53;;;;;;;31.55;28.42;;;12.70;99.90;;;;;;2066093;28;20513;-67
2021/05/13 02:51:54;;;;;;;29.98;26.98;;;12.70;99.90;;;;;;2065962;28;20085;-67
2021/05/13 02:52:55;;;;;;;31.42;28.08;;;12.70;99.90;;;;;;2065278;28;20022;-67
2021/05/13 02:53:55;;;;;;;26.98;24.27;;;12.70;99.90;;;;;;2065188;28;20030;-67
2021/05/13 02:54:56;;;;;;;21.30;19.30;;;12.60;99.90;;;;;;2066204;28;20023;-67
2021/05/13 02:55:56;;;;;;;22.98;20.67;;;12.60;99.90;;;;;;2061274;28;20491;-67
2021/05/13 02:56:57;;;;;;;20.02;17.67;;;12.60;99.90;;;;;;2063903;28;20034;-67
2021/05/13 02:58:00;;;;;;;26.48;23.80;;;12.60;99.90;;;;;;2065919;28;20105;-67
2021/05/13 02:59:00;;;;;;;27.33;22.65;;;12.60;99.90;;;;;;2066116;28;20022;-67
2021/05/13 03:00:17;;;;;;;28.02;25.15;;;12.60;99.90;;;;;;2065915;28;20104;-67
2021/05/13 03:01:29;;;;;;;27.80;25.00;;;12.50;99.90;;;;;;2065855;28;20466;-67
2021/05/13 03:02:31;;;;;;;25.40;22.90;;;12.50;99.90;;;;;;2063245;28;20466;-67
2021/05/13 03:03:32;;;;;;;22.67;20.35;;;12.50;99.90;;;;;;2064177;28;20030;-67
2021/05/13 03:04:33;;;;;;;25.42;22.83;;;12.50;99.90;;;;;;2064812;28;20023;-67
2021/05/13 03:05:33;;;;;;;27.05;24.35;;;12.50;99.90;;;;;;2065064;28;20030;-67
2021/05/13 03:06:34;;;;;;;25.30;22.45;;;12.50;99.90;;;;;;2064873;28;20040;-67
2021/05/13 03:07:41;;;;;;;26.00;23.35;;;12.50;99.90;;;;;;2064706;28;20055;-67
2021/05/13 03:08:42;;;;;;;27.63;24.83;;;12.40;99.90;;;;;;2065009;28;20369;-67
2021/05/13 03:09:47;;;;;;;26.60;24.10;;;12.40;99.90;;;;;;2064951;28;20493;-67
2021/05/13 03:10:47;;;;;;;23.17;20.80;;;12.40;99.90;;;;;;2061121;28;20053;-67
2021/05/13 03:11:48;;;;;;;22.67;20.48;;;12.40;99.90;;;;;;2063980;28;20077;-67
2021/05/13 03:12:52;;;;;;;25.13;22.55;;;12.40;99.90;;;;;;2064088;28;20030;-67
2021/05/13 03:13:55;;;;;;;20.05;18.02;;;12.40;99.90;;;;;;2064656;28;20030;-67
2021/05/13 03:14:57;;;;;;;25.73;23.38;;;12.30;99.90;;;;;;2064331;28;20029;-67
2021/05/13 03:15:57;;;;;;;25.85;23.40;;;12.30;99.90;;;;;;2064698;28;20036;-67
2021/05/13 03:16:58;;;;;;;26.55;23.95;;;12.30;99.90;;;;;;2064338;28;20038;-67
2021/05/13 03:17:59;;;;;;;25.60;23.00;;;12.30;99.90;;;;;;2064540;28;20030;-67
2021/05/13 03:19:00;;;;;;;21.48;19.25;;;12.30;99.90;;;;;;2064363;28;20034;-67
2021/05/13 03:20:00;;;;;;;22.27;20.17;;;12.30;99.90;;;;;;2064924;28;20027;-67
2021/05/13 03:21:09;;;;;;;27.00;24.38;;;12.30;99.90;;;;;;2064449;28;20109;-67
2021/05/13 03:22:15;;;;;;;28.50;25.73;;;12.30;99.90;;;;;;2063528;28;20026;-67
2021/05/13 03:23:15;;;;;;;21.70;19.58;;;12.20;99.90;;;;;;2064218;28;20615;-67
2021/05/13 03:25:37;;;;;;;20.08;18.00;;;12.20;99.90;;;;;;2064417;28;20022;-67
2021/05/13 03:27:51;;;;;;;26.58;23.90;;;12.20;99.90;;;;;;2064268;28;20022;-67
2021/05/13 03:28:52;;;;;;;26.27;23.77;;;12.10;99.90;;;;;;2064503;28;20058;-67
2021/05/13 03:29:56;;;;;;;21.45;19.45;;;12.10;99.90;;;;;;2064307;28;20542;-67
2021/05/13 03:30:57;;;;;;;28.95;26.30;;;12.10;99.90;;;;;;2064663;28;20026;-67
2021/05/13 03:31:57;;;;;;;24.55;22.30;;;12.10;99.90;;;;;;2064413;28;20030;-67
2021/05/13 03:32:58;;;;;;;22.27;19.98;;;12.10;99.90;;;;;;2063301;28;20033;-67
2021/05/13 03:33:59;;;;;;;20.50;18.42;;;12.10;99.90;;;;;;2062985;28;20053;-67
2021/05/13 03:35:00;;;;;;;24.77;22.20;;;12.00;99.90;;;;;;2058228;28;20023;-67
2021/05/13 03:36:00;;;;;;;27.27;24.45;;;12.00;99.90;;;;;;2064073;28;20057;-67
2021/05/13 03:37:01;;;;;;;28.40;25.58;;;12.00;99.90;;;;;;2059605;28;20102;-67
2021/05/13 03:38:03;;;;;;;31.02;27.95;;;12.00;99.90;;;;;;2064494;28;20109;-67
2021/05/13 03:39:06;;;;;;;30.30;27.23;;;12.00;99.90;;;;;;2064489;28;20392;-67
2021/05/13 03:40:08;;;;;;;29.77;26.83;;;12.00;99.90;;;;;;2064248;28;20022;-67
2021/05/13 03:41:08;;;;;;;29.42;26.63;;;12.00;99.90;;;;;;2064631;28;20481;-67
2021/05/13 03:42:09;;;;;;;30.30;27.40;;;12.00;99.90;;;;;;2063862;28;20378;-67
2021/05/13 03:43:10;;;;;;;26.98;24.27;;;12.00;99.90;;;;;;2064368;28;20033;-67
2021/05/13 03:44:10;;;;;;;28.40;25.48;;;11.90;99.90;;;;;;2064345;28;20072;-67
2021/05/13 03:45:11;;;;;;;25.63;22.92;;;11.90;99.90;;;;;;2061196;28;20093;-67
2021/05/13 03:46:12;;;;;;;26.70;24.02;;;11.90;99.90;;;;;;2064389;28;20362;-67
2021/05/13 03:47:12;;;;;;;23.25;21.05;;;11.90;99.90;;;;;;2064372;28;20453;-67
2021/05/13 03:48:13;;;;;;;27.35;24.65;;;11.90;99.90;;;;;;2064549;28;20429;-67
2021/05/13 03:49:13;;;;;;;27.33;24.63;;;11.90;99.90;;;;;;2064486;28;20034;-67
2021/05/13 03:50:14;;;;;;;26.15;23.60;;;11.80;99.90;;;;;;2064218;28;20022;-67
2021/05/13 03:51:16;;;;;;;24.77;22.38;;;11.90;99.90;;;;;;2057103;28;20081;-67
2021/05/13 03:52:17;;;;;;;25.67;22.92;;;11.80;99.90;;;;;;2062989;28;20146;-67
2021/05/13 03:53:17;;;;;;;28.17;25.20;;;11.80;99.90;;;;;;2064347;28;20033;-67
2021/05/13 03:54:18;;;;;;;25.75;23.17;;;11.80;99.90;;;;;;2064238;28;20019;-67
2021/05/13 03:55:18;;;;;;;28.77;25.98;;;11.80;99.90;;;;;;2064261;28;20097;-67
2021/05/13 03:56:19;;;;;;;24.25;21.77;;;11.80;99.90;;;;;;2064435;28;20033;-67
2021/05/13 03:57:19;;;;;;;28.17;25.38;;;11.70;99.90;;;;;;2064504;28;20092;-67
2021/05/13 03:58:23;;;;;;;28.77;25.98;;;11.70;99.90;;;;;;2064472;28;20050;-67
2021/05/13 03:59:24;;;;;;;29.67;26.77;;;11.80;99.90;;;;;;2064253;28;20037;-67
2021/05/13 04:02:11;;;;;;;26.75;24.00;;;11.70;99.90;;;;;;2055290;28;20035;-67
2021/05/13 04:03:12;;;;;;;26.33;23.55;;;11.70;99.90;;;;;;2056275;28;20027;-67
2021/05/13 04:04:13;;;;;;;28.67;25.85;;;11.60;99.90;;;;;;2064610;28;20042;-67
2021/05/13 04:05:13;;;;;;;28.42;25.65;;;11.60;99.90;;;;;;2063568;28;20030;-67
2021/05/13 04:06:14;;;;;;;29.98;27.00;;;11.60;99.90;;;;;;2064198;28;20062;-67
2021/05/13 04:07:15;;;;;;;25.35;22.98;;;11.60;99.90;;;;;;2063726;28;20072;-67
2021/05/13 04:08:15;;;;;;;29.17;26.17;;;11.60;99.90;;;;;;2064209;28;20023;-67
2021/05/13 04:09:16;;;;;;;27.92;25.02;;;11.60;99.90;;;;;;2064192;28;20592;-67
2021/05/13 04:10:17;;;;;;;27.45;24.55;;;11.60;99.90;;;;;;2064491;28;20027;-67
2021/05/13 04:11:17;;;;;;;23.65;21.27;;;11.60;99.90;;;;;;2064163;28;20105;-67
2021/05/13 04:12:18;;;;;;;31.75;28.45;;;11.60;99.90;;;;;;2063596;28;20022;-67
2021/05/13 04:13:19;;;;;;;26.15;23.27;;;11.60;99.90;;;;;;2064074;28;20026;-67
2021/05/13 04:14:21;;;;;;;28.33;25.45;;;11.60;99.90;;;;;;2064384;28;20343;-67
2021/05/13 04:15:21;;;;;;;30.25;26.95;;;11.60;99.90;;;;;;2064165;28;20030;-67
2021/05/13 04:16:27;;;;;;;32.88;29.67;;;11.60;99.90;;;;;;2064161;28;20023;-67
2021/05/13 04:17:27;;;;;;;31.88;28.77;;;11.60;99.90;;;;;;2063969;28;20498;-67
2021/05/13 04:18:28;;;;;;;29.73;26.63;;;11.60;99.90;;;;;;2064563;28;20465;-67
2021/05/13 04:19:29;;;;;;;27.52;24.65;;;11.60;99.90;;;;;;2063312;28;20062;-67
2021/05/13 04:20:29;;;;;;;26.40;23.55;;;11.50;99.90;;;;;;2064353;28;20034;-67
2021/05/13 04:21:30;;;;;;;29.75;26.73;;;11.50;99.90;;;;;;2063996;28;20386;-67
2021/05/13 04:22:31;;;;;;;31.88;28.30;;;11.50;99.90;;;;;;2063622;28;20030;-67
2021/05/13 04:23:32;;;;;;;23.83;21.60;;;11.60;99.90;;;;;;2064038;28;20057;-67
2021/05/13 04:24:32;;;;;;;25.25;22.80;;;11.60;99.90;;;;;;2064287;28;20506;-67
2021/05/13 04:25:33;;;;;;;29.98;26.90;;;11.50;99.90;;;;;;2064063;28;20026;-67
2021/05/13 04:26:34;;;;;;;29.35;26.52;;;11.50;99.90;;;;;;2064289;28;20053;-67
2021/05/13 04:27:35;;;;;;;28.75;25.85;;;11.60;99.90;;;;;;2063829;28;20034;-67
2021/05/13 04:28:35;;;;;;;29.35;26.45;;;11.50;99.90;;;;;;2064161;28;20038;-67
2021/05/13 04:29:36;;;;;;;28.63;25.92;;;11.50;99.90;;;;;;2063901;28;20045;-67
2021/05/13 04:30:36;;;;;;;24.70;22.40;;;11.50;99.90;;;;;;2063955;28;20105;-67
2021/05/13 04:31:37;;;;;;;23.08;20.98;;;11.50;99.90;;;;;;2063433;28;20030;-67
2021/05/13 04:32:38;;;;;;;30.52;27.38;;;11.50;99.90;;;;;;2063247;28;20035;-67
2021/05/13 04:33:39;;;;;;;25.98;23.00;;;11.50;99.90;;;;;;2064280;28;20034;-67
2021/05/13 04:34:39;;;;;;;26.80;24.13;;;11.50;99.90;;;;;;2056361;28;20109;-67
2021/05/13 04:35:40;;;;;;;29.77;26.88;;;11.50;99.90;;;;;;2058775;28;20085;-67
2021/05/13 04:36:41;;;;;;;30.70;27.67;;;11.50;99.90;;;;;;2064189;28;20033;-67
2021/05/13 04:37:41;;;;;;;30.40;27.42;;;11.50;99.90;;;;;;2064040;28;20022;-67
2021/05/13 04:38:42;;;;;;;33.08;29.70;;;11.50;99.90;;;;;;2064230;28;20038;-67
2021/05/13 04:39:42;;;;;;;35.65;31.83;;;11.50;99.90;;;;;;2063959;28;20370;-67
2021/05/13 04:40:43;;;;;;;37.38;33.45;;;11.50;99.90;;;;;;2063834;28;20049;-67
2021/05/13 04:41:44;;;;;;;32.33;29.00;;;11.50;99.90;;;;;;2064049;28;20080;-67
2021/05/13 04:42:44;;;;;;;26.15;23.58;;;11.50;99.90;;;;;;2063553;28;20030;-67
2021/05/13 04:43:45;;;;;;;29.08;26.25;;;11.50;99.90;;;;;;2063989;28;20541;-67
2021/05/13 04:44:46;;;;;;;35.10;30.13;;;11.50;99.90;;;;;;2061886;28;20080;-67
2021/05/13 04:45:48;;;;;;;34.65;29.73;;;11.50;99.90;;;;;;2062531;28;20030;-67
2021/05/13 04:46:57;;;;;;;29.65;26.60;;;11.50;99.90;;;;;;2063868;28;20022;-67
2021/05/13 04:49:59;;;;;;;37.55;33.63;;;11.50;99.90;;;;;;2064058;28;20033;-67
2021/05/13 04:51:00;;;;;;;35.45;31.75;;;11.50;99.90;;;;;;2063861;28;20030;-67
2021/05/13 04:52:00;;;;;;;36.28;32.38;;;11.50;99.90;;;;;;2063856;28;20545;-67
2021/05/13 04:53:07;;;;;;;33.88;30.60;;;11.60;99.90;;;;;;2063168;28;20053;-67
2021/05/13 04:54:08;;;;;;;34.35;30.38;;;11.60;99.90;;;;;;2063985;28;20038;-67
2021/05/13 04:55:09;;;;;;;33.25;29.17;;;11.60;99.90;;;;;;2063743;28;20522;-67
2021/05/13 04:56:09;;;;;;;36.75;32.80;;;11.60;99.90;;;;;;2064053;28;20084;-67
2021/05/13 04:57:10;;;;;;;33.47;29.98;;;11.70;99.90;;;;;;2063593;28;20030;-67
2021/05/13 04:58:11;;;;;;;35.72;32.15;;;11.70;99.90;;;;;;2063880;28;20022;-67
2021/05/13 04:59:12;;;;;;;34.40;30.80;;;11.70;99.90;;;;;;2063931;28;20034;-67
2021/05/13 05:00:13;;;;;;;29.50;26.60;;;11.70;99.90;;;;;;2063894;28;20485;-67
2021/05/13 05:01:14;;;;;;;29.55;26.65;;;11.80;99.90;;;;;;2063876;28;20056;-67
2021/05/13 05:02:15;;;;;;;30.77;27.60;;;11.80;99.90;;;;;;2062867;28;20026;-67
2021/05/13 05:03:16;;;;;;;34.55;31.05;;;11.80;99.90;;;;;;2059423;28;20749;-67
2021/05/13 05:04:16;;;;;;;41.25;35.03;;;11.90;99.90;;;;;;2063976;28;20035;-67
2021/05/13 05:05:17;;;;;;;39.58;35.45;;;11.90;99.90;;;;;;2063467;28;20053;-67
2021/05/13 05:06:17;;;;;;;38.63;34.72;;;12.00;99.90;;;;;;2063876;28;20050;-67
2021/05/13 05:07:18;;;;;;;42.65;38.25;;;12.00;99.90;;;;;;2063746;28;20030;-67
2021/05/13 05:08:18;;;;;;;43.10;36.00;;;12.10;99.90;;;;;;2063808;28;20030;-67
2021/05/13 05:09:19;;;;;;;38.25;34.35;;;12.10;99.90;;;;;;2063561;28;20034;-67
2021/05/13 05:10:20;;;;;;;38.67;34.78;;;12.20;99.90;;;;;;2063256;28;20100;-67
2021/05/13 05:11:21;;;;;;;31.02;27.85;;;12.20;99.90;;;;;;2063003;28;20039;-67
2021/05/13 05:12:21;;;;;;;30.73;27.55;;;12.30;99.90;;;;;;2063204;28;20059;-67
2021/05/13 05:13:22;;;;;;;36.40;32.67;;;12.30;99.90;;;;;;2063947;28;20058;-67
2021/05/13 05:14:22;;;;;;;34.42;30.80;;;12.30;99.90;;;;;;2063757;28;20037;-67
2021/05/13 05:15:23;;;;;;;32.20;28.80;;;12.40;99.90;;;;;;2063633;28;20489;-67
2021/05/13 05:16:23;;;;;;;32.10;29.00;;;12.40;99.90;;;;;;2061647;28;20105;-67
2021/05/13 05:17:24;;;;;;;35.03;31.38;;;12.50;99.90;;;;;;2063695;28;20030;-67
2021/05/13 05:18:25;;;;;;;30.92;27.73;;;12.50;99.90;;;;;;2063136;28;20097;-67
2021/05/13 05:19:26;;;;;;;30.88;27.63;;;12.60;99.90;;;;;;2064070;28;20050;-67
2021/05/13 05:20:27;;;;;;;32.70;29.25;;;12.60;99.90;;;;;;2063901;28;20046;-67
2021/05/13 05:21:27;;;;;;;35.28;31.73;;;12.60;99.90;;;;;;2063667;28;20037;-67
2021/05/13 05:22:28;;;;;;;34.42;31.00;;;12.70;99.90;;;;;;2062766;28;20042;-67